Time;durP1;ratioP1;P1;durP2;ratioP2;P2;SDS_P1;SDS_P2;PMS_P1;PMS_P2;Temp;Humidity;BMP_temperature;BMP_pressure;BME280_temperature;BME280_humidity;BME280_pressure;Samples;Min_cycle;Max_cycle;Signal;HPM_P1;HPM_P2
2022/05/24 00:02:04;;;;;;;26.52;18.17;;;17.80;99.90;;;;;;5069152;28;20104;-75
2022/05/24 00:04:30;;;;;;;28.08;18.85;;;17.70;99.90;;;;;;5069569;28;20036;-75
2022/05/24 00:06:57;;;;;;;22.98;16.63;;;17.70;99.90;;;;;;5069544;28;20025;-75
2022/05/24 00:09:22;;;;;;;27.02;16.10;;;17.60;99.90;;;;;;5067028;28;20054;-73
2022/05/24 00:11:48;;;;;;;22.00;14.23;;;17.70;99.90;;;;;;5064023;28;21606;-74
2022/05/24 00:14:14;;;;;;;20.98;14.73;;;17.50;99.90;;;;;;5062211;28;20028;-74
2022/05/24 00:16:40;;;;;;;20.95;13.23;;;17.50;99.90;;;;;;5066000;28;20082;-74
2022/05/24 00:19:06;;;;;;;17.60;13.10;;;17.50;99.90;;;;;;5065799;28;20078;-74
2022/05/24 00:21:31;;;;;;;19.65;13.43;;;17.40;99.90;;;;;;5069479;28;20037;-75
2022/05/24 00:23:59;;;;;;;22.35;14.23;;;17.50;99.90;;;;;;5067376;28;20040;-75
2022/05/24 00:26:31;;;;;;;22.40;13.45;;;17.50;99.90;;;;;;5068070;28;20025;-74
2022/05/24 00:28:57;;;;;;;22.33;12.98;;;17.50;99.90;;;;;;5066481;28;20069;-74
2022/05/24 00:31:23;;;;;;;20.65;13.70;;;17.60;99.90;;;;;;5065841;28;20036;-74
2022/05/24 00:33:48;;;;;;;19.30;13.02;;;17.50;99.90;;;;;;5070026;28;20040;-74
2022/05/24 00:36:15;;;;;;;15.77;11.55;;;17.40;99.90;;;;;;5066521;28;20028;-73
2022/05/24 00:38:41;;;;;;;23.00;13.38;;;17.30;99.90;;;;;;5071233;28;20482;-74
2022/05/24 00:41:30;;;;;;;16.50;13.05;;;17.30;99.90;;;;;;5067172;28;20027;-74
2022/05/24 00:43:56;;;;;;;22.25;14.15;;;17.40;99.90;;;;;;5063783;28;20099;-74
2022/05/24 00:46:26;;;;;;;16.20;12.98;;;17.20;99.90;;;;;;5070011;28;20020;-74
2022/05/24 00:49:07;;;;;;;17.48;12.15;;;17.20;99.90;;;;;;5068580;28;20050;-75
2022/05/24 00:51:47;;;;;;;20.15;12.45;;;17.10;99.90;;;;;;5079821;28;20414;-74
2022/05/24 00:54:13;;;;;;;18.27;13.50;;;17.20;99.90;;;;;;5074829;28;20052;-73
2022/05/24 00:56:42;;;;;;;20.25;12.23;;;17.20;99.90;;;;;;5072087;28;20107;-74
2022/05/24 00:59:13;;;;;;;25.40;13.85;;;17.20;99.90;;;;;;5071533;28;20043;-74
2022/05/24 01:01:42;;;;;;;18.73;11.30;;;17.20;99.90;;;;;;5061257;28;20020;-74
2022/05/24 01:04:11;;;;;;;19.15;11.93;;;17.20;99.90;;;;;;5075988;28;20044;-75
2022/05/24 01:06:38;;;;;;;17.88;11.20;;;17.20;99.90;;;;;;5074233;28;20037;-73
2022/05/24 01:09:20;;;;;;;15.48;11.65;;;17.10;99.90;;;;;;5074052;28;20021;-74
2022/05/24 01:11:49;;;;;;;16.30;11.95;;;17.10;99.90;;;;;;5067148;28;20016;-74
2022/05/24 01:14:18;;;;;;;17.40;12.32;;;17.00;99.90;;;;;;5076435;28;20033;-74
2022/05/24 01:16:44;;;;;;;18.88;11.15;;;17.00;99.90;;;;;;5067902;28;20496;-74
2022/05/24 01:19:19;;;;;;;17.05;11.05;;;17.00;99.90;;;;;;5074721;28;20025;-74
2022/05/24 01:21:48;;;;;;;15.45;10.70;;;17.00;99.90;;;;;;5073958;28;20047;-74
2022/05/24 01:24:30;;;;;;;18.80;11.20;;;16.90;99.90;;;;;;5075258;28;20033;-74
2022/05/24 01:26:57;;;;;;;18.35;10.40;;;16.90;99.90;;;;;;5074429;28;20422;-74
2022/05/24 01:29:25;;;;;;;22.05;10.13;;;16.90;99.90;;;;;;5067957;28;20129;-75
2022/05/24 01:37:30;;;;;;;17.58;9.65;;;16.90;99.90;;;;;;5073750;28;20031;-74
2022/05/24 01:39:57;;;;;;;15.40;9.88;;;16.90;99.90;;;;;;5074415;28;20070;-74
2022/05/24 01:42:24;;;;;;;13.45;10.00;;;16.90;99.90;;;;;;5067100;28;20031;-73
2022/05/24 01:44:58;;;;;;;17.05;10.15;;;16.80;99.90;;;;;;5074831;28;20051;-74
2022/05/24 01:47:26;;;;;;;17.10;8.77;;;16.80;99.90;;;;;;5074312;28;20028;-74
2022/05/24 01:49:58;;;;;;;16.17;9.68;;;16.60;99.90;;;;;;5074570;28;20020;-74
2022/05/24 01:52:23;;;;;;;14.90;8.88;;;16.60;99.90;;;;;;5075145;28;20097;-74
2022/05/24 01:54:54;;;;;;;11.38;9.43;;;16.60;99.90;;;;;;5073507;28;20476;-74
2022/05/24 01:57:34;;;;;;;16.92;9.80;;;16.60;99.90;;;;;;5072844;28;20501;-74
2022/05/24 02:00:03;;;;;;;23.92;10.77;;;16.50;99.90;;;;;;5064626;28;20111;-74
2022/05/24 02:02:29;;;;;;;15.82;8.90;;;16.30;99.90;;;;;;5068211;28;20495;-74
2022/05/24 02:04:55;;;;;;;14.45;8.30;;;16.30;99.90;;;;;;5075157;28;20028;-74
2022/05/24 02:07:23;;;;;;;14.85;8.27;;;16.30;99.90;;;;;;5072511;28;20024;-74
2022/05/24 02:09:54;;;;;;;20.40;9.00;;;16.20;99.90;;;;;;5074616;28;20021;-75
2022/05/24 02:12:25;;;;;;;13.63;8.48;;;16.20;99.90;;;;;;5072076;28;20047;-74
2022/05/24 02:14:57;;;;;;;16.75;7.25;;;16.20;99.90;;;;;;5068375;28;20093;-74
2022/05/24 02:17:40;;;;;;;12.88;8.18;;;16.20;99.90;;;;;;5068152;28;20036;-72
2022/05/24 02:20:10;;;;;;;14.75;6.75;;;16.20;99.90;;;;;;5069774;28;20029;-73
2022/05/24 02:22:37;;;;;;;11.75;7.72;;;16.30;99.90;;;;;;5073183;28;20024;-74
2022/05/24 02:25:05;;;;;;;9.38;6.63;;;16.10;99.90;;;;;;5073301;28;20028;-74
2022/05/24 02:27:31;;;;;;;11.68;6.13;;;16.20;99.90;;;;;;5078166;28;20035;-74
2022/05/24 02:29:58;;;;;;;13.73;7.20;;;16.10;99.90;;;;;;5080362;28;20021;-74
2022/05/24 02:32:24;;;;;;;13.98;7.07;;;16.10;99.90;;;;;;5070128;28;20111;-74
2022/05/24 02:34:49;;;;;;;13.90;5.75;;;16.10;99.90;;;;;;5078424;28;20510;-74
2022/05/24 02:37:15;;;;;;;12.90;5.97;;;16.20;99.90;;;;;;5079721;28;20104;-74
2022/05/24 02:42:25;;;;;;;13.82;5.75;;;16.10;99.90;;;;;;5075579;28;20036;-74
2022/05/24 02:44:50;;;;;;;11.43;6.03;;;16.10;99.90;;;;;;5079725;28;20028;-74
2022/05/24 02:47:17;;;;;;;11.13;5.50;;;16.10;99.90;;;;;;5077078;28;20020;-75
2022/05/24 02:49:42;;;;;;;12.63;5.65;;;16.20;99.90;;;;;;5081386;28;20079;-75
2022/05/24 02:52:08;;;;;;;9.30;4.90;;;16.10;99.90;;;;;;5078168;28;20392;-71
2022/05/24 02:54:33;;;;;;;7.45;4.03;;;16.10;99.90;;;;;;5075832;28;20025;-74
2022/05/24 02:57:01;;;;;;;9.48;3.80;;;15.90;99.90;;;;;;5079500;28;20039;-74
2022/05/24 02:59:27;;;;;;;8.40;4.10;;;15.90;99.90;;;;;;5079444;28;20038;-74
2022/05/24 03:01:53;;;;;;;9.35;4.10;;;15.80;99.90;;;;;;5074444;28;20047;-74
2022/05/24 03:04:19;;;;;;;8.30;3.55;;;15.80;99.90;;;;;;5080915;28;20037;-74
2022/05/24 03:09:35;;;;;;;6.18;2.90;;;15.70;99.90;;;;;;5073077;28;20043;-73
2022/05/24 03:14:51;;;;;;;6.93;3.35;;;15.60;99.90;;;;;;5076532;28;20531;-74
2022/05/24 03:17:17;;;;;;;10.32;2.90;;;15.70;99.90;;;;;;5079335;28;20051;-74
2022/05/24 03:19:44;;;;;;;10.30;2.63;;;15.70;99.90;;;;;;5079458;28;20029;-74
2022/05/24 03:22:10;;;;;;;7.40;2.60;;;15.60;99.90;;;;;;5074453;28;20028;-74
2022/05/24 03:24:36;;;;;;;8.38;3.10;;;15.60;99.90;;;;;;5072976;28;20112;-74
2022/05/24 03:27:07;;;;;;;8.70;2.53;;;15.70;99.90;;;;;;5078058;28;20035;-74
2022/05/24 03:29:34;;;;;;;10.10;3.15;;;15.70;99.90;;;;;;5080037;28;20024;-75
2022/05/24 03:32:00;;;;;;;9.88;2.70;;;15.80;99.90;;;;;;5078841;28;20442;-75
2022/05/24 03:34:26;;;;;;;6.07;2.47;;;15.80;99.90;;;;;;5081012;28;20020;-74
2022/05/24 03:36:52;;;;;;;6.55;2.60;;;15.80;99.90;;;;;;5079035;28;20362;-74
2022/05/24 03:39:18;;;;;;;11.40;3.00;;;15.60;99.90;;;;;;5077927;28;20036;-74
2022/05/24 03:41:46;;;;;;;6.35;3.20;;;15.70;99.90;;;;;;5064925;28;20029;-75
2022/05/24 03:44:12;;;;;;;7.93;2.45;;;15.70;99.90;;;;;;5073051;28;20131;-74
2022/05/24 03:46:38;;;;;;;9.07;2.45;;;15.60;99.90;;;;;;5080135;28;20456;-74
2022/05/24 03:49:04;;;;;;;7.75;2.85;;;15.70;99.90;;;;;;5076380;28;20031;-74
2022/05/24 03:51:30;;;;;;;8.38;2.28;;;15.70;99.90;;;;;;5076964;28;20027;-74
2022/05/24 03:53:56;;;;;;;6.88;2.30;;;15.60;99.90;;;;;;5075441;28;20334;-74
2022/05/24 03:56:22;;;;;;;9.02;2.45;;;15.70;99.90;;;;;;5074164;28;20060;-74
2022/05/24 03:58:47;;;;;;;10.07;2.65;;;15.60;99.90;;;;;;5074744;28;20028;-74
2022/05/24 04:01:13;;;;;;;8.23;2.63;;;15.50;99.90;;;;;;5075171;28;20020;-74
2022/05/24 04:03:39;;;;;;;9.35;2.70;;;15.60;99.90;;;;;;5076486;28;20039;-74
2022/05/24 04:06:04;;;;;;;10.07;2.45;;;15.60;99.90;;;;;;5076135;28;20526;-74
2022/05/24 04:08:30;;;;;;;8.05;3.13;;;15.60;99.90;;;;;;5076167;28;20032;-74
2022/05/24 04:11:08;;;;;;;11.05;2.60;;;15.60;99.90;;;;;;5070506;28;20024;-74
2022/05/24 04:13:36;;;;;;;8.95;2.33;;;15.60;99.90;;;;;;5072098;28;20025;-74
2022/05/24 04:16:02;;;;;;;9.93;2.55;;;15.70;99.90;;;;;;5073050;28;20526;-75
2022/05/24 04:18:27;;;;;;;7.38;2.08;;;15.60;99.90;;;;;;5075789;28;20029;-74
2022/05/24 04:20:54;;;;;;;10.13;2.72;;;15.60;99.90;;;;;;5076547;28;20361;-75
2022/05/24 04:23:21;;;;;;;7.95;2.80;;;15.60;99.90;;;;;;5072912;28;20040;-75
2022/05/24 04:25:47;;;;;;;11.80;2.28;;;15.50;99.90;;;;;;5076936;28;20016;-74
2022/05/24 04:28:14;;;;;;;6.22;2.65;;;15.50;99.90;;;;;;5071545;28;20020;-74
2022/05/24 04:30:40;;;;;;;7.88;2.00;;;15.50;99.90;;;;;;5075673;28;20457;-75
2022/05/24 04:33:06;;;;;;;6.38;2.78;;;15.60;99.90;;;;;;5074371;28;20031;-75
2022/05/24 04:35:32;;;;;;;6.18;2.60;;;15.50;99.90;;;;;;5074384;28;20032;-75
2022/05/24 04:38:00;;;;;;;7.38;2.15;;;15.50;99.90;;;;;;5075485;28;20029;-70
2022/05/24 04:43:10;;;;;;;6.90;2.65;;;15.50;99.90;;;;;;5072278;28;20052;-75
2022/05/24 04:45:36;;;;;;;6.28;2.20;;;15.50;99.90;;;;;;5073182;28;20025;-75
2022/05/24 04:48:01;;;;;;;7.35;3.05;;;15.40;99.90;;;;;;5072760;28;20434;-75
2022/05/24 04:50:27;;;;;;;7.75;2.58;;;15.50;99.90;;;;;;5073547;28;20031;-75
2022/05/24 04:52:53;;;;;;;6.38;2.22;;;15.50;99.90;;;;;;5073934;28;20029;-74
2022/05/24 04:55:18;;;;;;;8.77;2.90;;;15.50;99.90;;;;;;5074336;28;20105;-75
2022/05/24 04:57:44;;;;;;;7.15;2.28;;;15.60;99.90;;;;;;5074247;28;20099;-75
2022/05/24 05:00:14;;;;;;;11.23;2.70;;;15.50;99.90;;;;;;5073191;28;20024;-75
2022/05/24 05:02:41;;;;;;;7.85;2.33;;;15.50;99.90;;;;;;5073984;28;20042;-75
2022/05/24 05:05:07;;;;;;;11.57;2.33;;;15.50;99.90;;;;;;5073275;28;20427;-75
2022/05/24 05:07:33;;;;;;;8.13;2.33;;;15.40;99.90;;;;;;5072980;28;20472;-75
2022/05/24 05:09:59;;;;;;;6.00;2.60;;;15.40;99.90;;;;;;5073002;28;20028;-74
2022/05/24 05:12:26;;;;;;;7.88;2.40;;;15.30;99.90;;;;;;5074033;28;20039;-71
2022/05/24 05:14:52;;;;;;;10.73;2.42;;;15.10;99.90;;;;;;5055520;28;20037;-71
2022/05/24 05:17:19;;;;;;;6.68;2.28;;;15.10;99.90;;;;;;5054197;28;20047;-72
2022/05/24 05:19:45;;;;;;;8.52;2.40;;;15.20;99.90;;;;;;5053251;28;20032;-72
2022/05/24 05:22:12;;;;;;;4.75;2.25;;;15.20;99.90;;;;;;5053705;28;20108;-72
2022/05/24 05:24:38;;;;;;;8.90;2.00;;;15.20;99.90;;;;;;5053378;28;20028;-72
2022/05/24 05:27:05;;;;;;;10.75;2.20;;;15.30;99.90;;;;;;5053762;28;20082;-72
2022/05/24 05:32:20;;;;;;;6.78;2.30;;;15.40;99.90;;;;;;5053588;28;20098;-72
2022/05/24 05:34:48;;;;;;;7.63;1.73;;;15.30;99.90;;;;;;5053534;28;20013;-71
2022/05/24 05:37:14;;;;;;;14.90;1.98;;;15.30;99.90;;;;;;5053251;28;20035;-71
2022/05/24 05:39:40;;;;;;;4.78;2.33;;;15.30;99.90;;;;;;5052210;28;20036;-71
2022/05/24 05:42:06;;;;;;;7.10;2.33;;;15.20;99.90;;;;;;5064813;28;20052;-71
2022/05/24 05:44:32;;;;;;;8.32;2.20;;;15.20;99.90;;;;;;5071904;28;20506;-72
2022/05/24 05:46:58;;;;;;;6.28;1.80;;;15.30;99.90;;;;;;5071313;28;20111;-72
2022/05/24 05:49:24;;;;;;;6.25;2.42;;;15.30;99.90;;;;;;5072818;28;20457;-72
2022/05/24 05:51:50;;;;;;;7.53;2.33;;;15.30;99.90;;;;;;5072668;28;20028;-69
2022/05/24 05:54:15;;;;;;;7.45;2.20;;;15.30;99.90;;;;;;5087806;28;20033;-71
2022/05/24 05:56:42;;;;;;;8.20;2.33;;;15.20;99.90;;;;;;5073205;28;20571;-72
2022/05/24 05:59:08;;;;;;;11.02;2.53;;;15.20;99.90;;;;;;5071430;28;20051;-72
2022/05/24 06:01:33;;;;;;;11.25;2.80;;;15.20;99.90;;;;;;5063427;28;20385;-71
2022/05/24 06:04:00;;;;;;;10.88;2.55;;;15.20;99.90;;;;;;5066817;28;20526;-71
2022/05/24 06:06:33;;;;;;;11.20;3.13;;;15.20;99.90;;;;;;5069989;28;20028;-71
2022/05/24 06:08:58;;;;;;;9.43;2.75;;;15.20;99.90;;;;;;5073851;28;20035;-72
2022/05/24 06:11:24;;;;;;;7.70;2.50;;;15.20;99.90;;;;;;5070517;28;20017;-71
2022/05/24 06:13:51;;;;;;;7.72;2.90;;;15.10;99.90;;;;;;5063428;28;20032;-71
2022/05/24 06:16:19;;;;;;;8.05;2.53;;;15.10;99.90;;;;;;5072988;28;20047;-72
2022/05/24 06:18:44;;;;;;;8.73;2.95;;;15.10;99.90;;;;;;5073025;28;20020;-72
2022/05/24 06:21:10;;;;;;;7.43;2.40;;;15.10;99.90;;;;;;5074696;28;20096;-71
2022/05/24 06:23:36;;;;;;;9.93;3.30;;;15.20;99.90;;;;;;5073903;28;20143;-72
2022/05/24 06:26:02;;;;;;;7.18;2.47;;;15.30;99.90;;;;;;5066291;28;20035;-72
2022/05/24 06:28:28;;;;;;;10.40;3.05;;;15.40;99.90;;;;;;5065829;28;20021;-73
2022/05/24 06:30:54;;;;;;;5.10;2.72;;;15.40;99.90;;;;;;5068995;28;20354;-70
2022/05/24 06:33:20;;;;;;;11.45;2.65;;;15.40;99.90;;;;;;5057184;28;20071;-71
2022/05/24 06:35:46;;;;;;;7.85;2.70;;;15.50;99.90;;;;;;5052467;28;20025;-71
2022/05/24 06:38:12;;;;;;;8.38;2.63;;;15.40;99.90;;;;;;5052412;28;20473;-71
2022/05/24 06:40:38;;;;;;;6.30;2.30;;;15.50;99.90;;;;;;5052220;28;20020;-71
2022/05/24 06:43:04;;;;;;;6.25;2.28;;;15.50;99.90;;;;;;5071866;28;20041;-71
2022/05/24 06:45:30;;;;;;;14.05;3.00;;;15.60;99.90;;;;;;5057667;28;20572;-71
2022/05/24 06:47:56;;;;;;;4.68;2.00;;;15.70;99.90;;;;;;5052399;28;20029;-71
2022/05/24 06:50:22;;;;;;;9.02;2.10;;;15.80;99.90;;;;;;5061513;28;20024;-71
2022/05/24 06:52:55;;;;;;;10.60;2.67;;;15.80;99.90;;;;;;5072296;28;20032;-71
2022/05/24 06:55:21;;;;;;;7.25;2.55;;;15.90;99.90;;;;;;5072608;28;20029;-71
2022/05/24 06:57:47;;;;;;;7.53;1.67;;;16.00;99.90;;;;;;5071935;28;20025;-71
2022/05/24 07:03:13;;;;;;;6.07;2.30;;;16.10;99.90;;;;;;5057983;28;20190;-72
2022/05/24 07:05:39;;;;;;;8.38;1.98;;;16.10;99.90;;;;;;5072118;28;20020;-71
2022/05/24 07:08:05;;;;;;;6.57;1.88;;;16.10;99.90;;;;;;5071756;28;20465;-71
2022/05/24 07:10:33;;;;;;;7.22;1.77;;;16.40;99.90;;;;;;5072239;28;20103;-72
2022/05/24 07:13:15;;;;;;;8.65;1.95;;;16.40;99.90;;;;;;5051644;28;20071;-71
2022/05/24 07:15:41;;;;;;;3.17;1.50;;;16.30;99.90;;;;;;5088516;28;20370;-71
2022/05/24 07:18:07;;;;;;;3.67;1.58;;;16.30;99.90;;;;;;5075350;28;20027;-71
2022/05/24 07:20:34;;;;;;;5.93;1.90;;;16.40;99.90;;;;;;5067273;28;20017;-71
2022/05/24 07:23:14;;;;;;;7.18;1.52;;;16.60;99.90;;;;;;5055652;28;20029;-71
2022/05/24 07:25:41;;;;;;;7.95;1.63;;;16.70;99.90;;;;;;5056015;28;20023;-71
2022/05/24 07:28:09;;;;;;;7.32;1.90;;;16.70;99.90;;;;;;5058238;28;20017;-71
2022/05/24 07:30:35;;;;;;;8.57;1.50;;;16.70;99.90;;;;;;5066258;28;20017;-72
2022/05/24 07:33:01;;;;;;;6.80;1.52;;;16.80;99.90;;;;;;5061768;28;20114;-71
2022/05/24 07:35:27;;;;;;;8.57;1.55;;;17.10;99.90;;;;;;5063526;28;20028;-71
2022/05/24 07:37:52;;;;;;;1.83;1.25;;;17.20;99.90;;;;;;5063831;28;20040;-71
2022/05/24 07:46:09;;;;;;;6.85;1.10;;;17.00;99.90;;;;;;5091955;28;20161;-71
2022/05/24 07:48:35;;;;;;;6.75;1.30;;;17.00;99.90;;;;;;5063348;28;20040;-70
2022/05/24 07:51:01;;;;;;;6.00;1.70;;;17.00;99.90;;;;;;5063602;28;20488;-71
2022/05/24 07:53:27;;;;;;;10.63;1.48;;;17.10;99.90;;;;;;5062022;28;20025;-71
2022/05/24 07:55:57;;;;;;;4.88;1.30;;;17.00;99.90;;;;;;5065260;28;20032;-72
2022/05/24 07:58:24;;;;;;;4.57;1.10;;;16.90;99.90;;;;;;5061348;28;20024;-71
2022/05/24 08:00:50;;;;;;;5.18;1.42;;;16.80;99.90;;;;;;5036113;28;20044;-72
2022/05/24 08:03:16;;;;;;;6.95;1.17;;;17.10;99.90;;;;;;5072584;28;20091;-73
2022/05/24 08:05:42;;;;;;;4.80;1.00;;;17.30;99.90;;;;;;5066069;28;20070;-73
2022/05/24 08:08:09;;;;;;;3.47;0.88;;;17.40;99.90;;;;;;5054882;28;20456;-73
2022/05/24 08:10:37;;;;;;;5.28;1.50;;;17.60;99.90;;;;;;5056364;28;20496;-73
2022/05/24 08:13:09;;;;;;;3.83;0.90;;;17.70;99.90;;;;;;5063009;28;20059;-73
2022/05/24 08:15:35;;;;;;;1.27;0.70;;;18.00;99.90;;;;;;5061212;28;20029;-72
2022/05/24 08:18:01;;;;;;;5.63;1.20;;;18.20;99.90;;;;;;5054567;28;20033;-74
2022/05/24 08:20:29;;;;;;;3.22;1.08;;;18.30;99.90;;;;;;5066609;28;20028;-72
2022/05/24 08:22:55;;;;;;;3.67;0.93;;;18.10;99.90;;;;;;5075126;28;20039;-72
2022/05/24 08:25:21;;;;;;;2.28;1.00;;;18.00;99.90;;;;;;5062517;28;20040;-72
2022/05/24 08:27:47;;;;;;;1.55;1.00;;;18.30;99.90;;;;;;5059075;28;20028;-73
2022/05/24 08:30:15;;;;;;;2.80;1.00;;;18.30;99.90;;;;;;5062607;28;20025;-72
2022/05/24 08:32:42;;;;;;;4.18;1.17;;;18.20;99.90;;;;;;5065088;28;20487;-73
2022/05/24 08:35:10;;;;;;;2.92;0.90;;;18.10;99.90;;;;;;5064897;28;20055;-72
2022/05/24 08:37:36;;;;;;;1.50;0.88;;;17.90;99.90;;;;;;5063239;28;20783;-72
2022/05/24 08:40:03;;;;;;;1.90;1.10;;;17.80;99.90;;;;;;5059802;28;20064;-71
2022/05/24 08:42:54;;;;;;;3.03;0.90;;;17.80;99.90;;;;;;5069507;28;20069;-71
2022/05/24 08:48:28;;;;;;;7.35;1.60;;;18.00;99.90;;;;;;5065730;28;20094;-72
2022/05/24 08:51:04;;;;;;;1.35;0.80;;;18.00;99.90;;;;;;5062151;28;20021;-72
2022/05/24 08:53:41;;;;;;;1.80;1.00;;;17.90;99.90;;;;;;5063946;28;20077;-72
2022/05/24 08:56:10;;;;;;;2.53;0.93;;;18.00;99.90;;;;;;5061614;28;20516;-72
2022/05/24 08:58:44;;;;;;;4.53;1.02;;;18.00;99.90;;;;;;5063814;28;20039;-72
2022/05/24 09:01:18;;;;;;;2.78;0.73;;;18.30;99.90;;;;;;5074132;28;20032;-72
2022/05/24 09:03:45;;;;;;;3.55;0.70;;;18.30;99.90;;;;;;5073329;28;20547;-72
2022/05/24 09:06:25;;;;;;;2.33;0.88;;;18.30;99.90;;;;;;5074105;28;20469;-72
2022/05/24 09:09:06;;;;;;;1.73;0.88;;;18.50;99.90;;;;;;5071993;28;20020;-72
2022/05/24 09:11:42;;;;;;;4.93;0.90;;;18.60;99.90;;;;;;5054085;28;20043;-72
2022/05/24 09:14:12;;;;;;;5.85;1.23;;;18.60;99.90;;;;;;5053939;28;20056;-72
2022/05/24 09:16:49;;;;;;;5.53;1.40;;;18.70;99.90;;;;;;5053635;28;20060;-72
2022/05/24 09:19:21;;;;;;;3.72;1.40;;;18.90;99.90;;;;;;5053966;28;20017;-73
2022/05/24 09:21:51;;;;;;;4.65;1.40;;;19.10;99.90;;;;;;5053817;28;20489;-72
2022/05/24 09:24:31;;;;;;;5.35;1.02;;;19.10;99.90;;;;;;5053800;28;20033;-73
2022/05/24 09:27:49;;;;;;;2.67;1.10;;;19.40;99.90;;;;;;5054044;28;20116;-73
2022/05/24 09:30:35;;;;;;;2.35;1.13;;;19.30;99.90;;;;;;5062444;28;20389;-71
2022/05/24 09:33:19;;;;;;;3.47;1.45;;;19.00;99.90;;;;;;5064779;28;20024;-72
2022/05/24 09:35:45;;;;;;;2.30;0.80;;;18.90;99.90;;;;;;5073207;28;20021;-72
2022/05/24 09:38:14;;;;;;;3.17;0.95;;;18.80;99.90;;;;;;5071962;28;20031;-72
2022/05/24 09:40:56;;;;;;;2.33;0.90;;;18.60;99.90;;;;;;5058516;28;20183;-72
2022/05/24 09:43:27;;;;;;;2.13;0.95;;;18.40;99.90;;;;;;5053216;28;20493;-72
2022/05/24 09:46:15;;;;;;;4.57;1.23;;;18.80;99.90;;;;;;5067282;28;20059;-72
2022/05/24 09:48:57;;;;;;;6.07;1.00;;;19.00;99.90;;;;;;5053259;28;20041;-72
2022/05/24 09:51:32;;;;;;;3.17;1.00;;;18.90;99.90;;;;;;5058625;28;20014;-71
2022/05/24 09:53:58;;;;;;;3.22;0.90;;;18.80;99.90;;;;;;5072629;28;20029;-72
2022/05/24 09:56:28;;;;;;;4.38;1.10;;;18.80;99.90;;;;;;5073329;28;20177;-71
2022/05/24 09:59:02;;;;;;;3.35;0.90;;;18.60;99.90;;;;;;5067326;28;20063;-72
2022/05/24 10:01:31;;;;;;;3.85;0.80;;;18.70;99.90;;;;;;5075043;28;20071;-72
2022/05/24 10:04:11;;;;;;;1.98;0.82;;;18.90;99.90;;;;;;5074665;28;20032;-72
2022/05/24 10:06:41;;;;;;;1.80;0.88;;;19.40;99.90;;;;;;5073364;28;20051;-71
2022/05/24 10:09:54;;;;;;;1.15;0.98;;;19.70;99.90;;;;;;5073577;28;20021;-72
2022/05/24 10:12:44;;;;;;;1.77;0.88;;;20.10;99.90;;;;;;5045081;28;20037;-72
2022/05/24 10:15:13;;;;;;;3.70;0.90;;;20.30;99.90;;;;;;5074540;28;20037;-72
2022/05/24 10:18:14;;;;;;;7.05;1.15;;;19.90;99.90;;;;;;5069209;28;20111;-72
2022/05/24 10:20:47;;;;;;;1.90;0.60;;;20.10;99.90;;;;;;5074372;28;20115;-72
2022/05/24 10:23:25;;;;;;;2.90;0.88;;;20.50;99.90;;;;;;5073355;28;20750;-72
2022/05/24 10:26:16;;;;;;;2.15;0.60;;;20.90;99.90;;;;;;5069537;28;20028;-72
2022/05/24 10:28:45;;;;;;;0.50;0.43;;;21.20;99.90;;;;;;5073978;28;20102;-72
2022/05/24 10:31:48;;;;;;;2.38;0.80;;;21.40;99.90;;;;;;5069203;28;20029;-72
2022/05/24 10:40:21;;;;;;;1.98;0.57;;;21.00;97.30;;;;;;5065459;28;20086;-72
2022/05/24 10:43:23;;;;;;;3.05;0.55;;;21.40;99.00;;;;;;5063483;28;20032;-72
2022/05/24 10:46:00;;;;;;;1.30;0.63;;;21.80;98.50;;;;;;5083875;28;20047;-72
2022/05/24 10:48:43;;;;;;;5.50;0.82;;;21.90;98.20;;;;;;5075408;28;20113;-72
2022/05/24 10:51:29;;;;;;;2.13;0.60;;;21.90;98.20;;;;;;5077255;28;20025;-72
2022/05/24 10:54:05;;;;;;;2.70;1.02;;;21.50;97.80;;;;;;5072014;28;20099;-72
2022/05/24 10:57:00;;;;;;;1.52;0.80;;;21.20;98.70;;;;;;5073235;28;20024;-71
2022/05/24 10:59:47;;;;;;;3.15;1.13;;;20.60;99.90;;;;;;5065482;28;20028;-71
2022/05/24 11:02:43;;;;;;;4.07;1.48;;;20.10;99.90;;;;;;5068858;28;20079;-72
2022/05/24 11:05:11;;;;;;;2.53;0.80;;;19.70;99.90;;;;;;5071396;28;20516;-71
2022/05/24 11:07:38;;;;;;;1.02;0.80;;;19.60;99.90;;;;;;5069091;28;20040;-72
2022/05/24 11:10:09;;;;;;;1.08;0.43;;;19.30;99.90;;;;;;5068737;28;20032;-70
2022/05/24 11:12:46;;;;;;;2.63;0.80;;;19.30;99.90;;;;;;5065597;28;20212;-71
2022/05/24 11:15:15;;;;;;;3.50;0.63;;;19.80;99.90;;;;;;5067821;28;20044;-72
2022/05/24 11:17:41;;;;;;;2.97;0.70;;;20.10;99.90;;;;;;5074635;28;20031;-72
2022/05/24 11:20:08;;;;;;;1.40;0.52;;;20.30;99.90;;;;;;5076136;28;20028;-73
2022/05/24 11:22:59;;;;;;;2.58;0.80;;;20.50;99.90;;;;;;5074074;28;20037;-71
2022/05/24 11:25:30;;;;;;;1.52;0.80;;;20.70;99.90;;;;;;5070149;28;20049;-73
2022/05/24 11:28:04;;;;;;;0.82;0.60;;;21.10;99.90;;;;;;5078074;28;20433;-73
2022/05/24 11:30:30;;;;;;;3.47;0.77;;;21.40;99.80;;;;;;5075584;28;20400;-74
2022/05/24 11:33:11;;;;;;;1.20;0.73;;;21.20;99.60;;;;;;5076285;28;20055;-72
2022/05/24 11:35:52;;;;;;;1.55;0.80;;;20.50;98.80;;;;;;5067885;28;20465;-71
2022/05/24 11:38:23;;;;;;;2.83;0.85;;;20.50;99.20;;;;;;5073600;28;20017;-72
2022/05/24 11:41:21;;;;;;;2.97;0.90;;;20.30;99.30;;;;;;5075616;28;20043;-72
2022/05/24 11:43:50;;;;;;;1.70;1.10;;;20.10;99.90;;;;;;5076360;28;20060;-73
2022/05/24 11:46:34;;;;;;;2.67;0.95;;;20.70;99.90;;;;;;5076606;28;20043;-73
2022/05/24 11:49:05;;;;;;;2.55;0.80;;;20.80;99.90;;;;;;5072704;28;20389;-73
2022/05/24 11:51:45;;;;;;;0.80;0.60;;;21.20;99.90;;;;;;5076492;28;20027;-73
2022/05/24 11:54:21;;;;;;;2.95;0.60;;;21.50;99.70;;;;;;5076012;28;20353;-73
2022/05/24 11:57:02;;;;;;;1.45;0.68;;;21.70;98.60;;;;;;5077817;28;20024;-73
2022/05/24 11:59:48;;;;;;;2.85;0.60;;;21.80;97.80;;;;;;5071295;28;20098;-72
2022/05/24 12:02:26;;;;;;;1.35;0.50;;;22.10;98.90;;;;;;5076814;28;20035;-72
2022/05/24 12:08:28;;;;;;;2.85;0.60;;;22.10;96.70;;;;;;5066564;28;20044;-72
2022/05/24 12:11:06;;;;;;;1.67;0.70;;;22.20;96.40;;;;;;5069576;28;20028;-72
2022/05/24 12:13:54;;;;;;;2.03;0.70;;;22.40;96.80;;;;;;5085389;28;20040;-71
2022/05/24 12:16:47;;;;;;;1.08;0.68;;;22.00;97.10;;;;;;5076232;28;20120;-72
2022/05/24 12:19:45;;;;;;;1.92;0.90;;;22.00;95.70;;;;;;5072163;28;20178;-72
2022/05/24 12:22:13;;;;;;;2.13;0.75;;;21.90;96.10;;;;;;5073199;28;20028;-73
2022/05/24 12:24:38;;;;;;;3.55;0.70;;;21.70;96.10;;;;;;5074814;28;20040;-72
2022/05/24 12:27:14;;;;;;;3.22;1.52;;;21.40;96.10;;;;;;5075551;28;20151;-71
2022/05/24 12:29:43;;;;;;;2.10;0.80;;;21.10;97.50;;;;;;5075816;28;20100;-73
2022/05/24 12:32:09;;;;;;;2.13;0.80;;;20.70;98.50;;;;;;5076840;28;20097;-73
2022/05/24 12:34:35;;;;;;;2.63;0.70;;;20.50;99.60;;;;;;5072395;28;20024;-72
2022/05/24 12:37:25;;;;;;;1.48;0.80;;;20.50;99.50;;;;;;5076401;28;20020;-72
2022/05/24 12:40:14;;;;;;;1.23;0.65;;;20.80;99.90;;;;;;5074549;28;20547;-73
2022/05/24 12:42:54;;;;;;;1.48;0.50;;;21.30;99.00;;;;;;5070660;28;20029;-72
2022/05/24 12:45:32;;;;;;;2.95;0.60;;;21.30;97.90;;;;;;5068961;28;20079;-72
2022/05/24 12:47:57;;;;;;;2.20;0.55;;;21.20;96.60;;;;;;5073693;28;20017;-73
2022/05/24 12:50:30;;;;;;;1.95;0.70;;;21.40;97.50;;;;;;5071490;28;20613;-70
2022/05/24 12:53:03;;;;;;;2.60;0.80;;;21.00;97.30;;;;;;5074913;28;20017;-72
2022/05/24 12:58:27;;;;;;;1.55;0.70;;;20.90;97.10;;;;;;5074063;28;20439;-72
2022/05/24 13:01:13;;;;;;;3.97;0.77;;;20.90;98.20;;;;;;5071114;28;20021;-72
2022/05/24 13:04:03;;;;;;;1.90;0.90;;;20.60;97.40;;;;;;5064532;28;20127;-71
2022/05/24 13:06:32;;;;;;;9.07;0.90;;;20.30;99.10;;;;;;5059076;28;20025;-73
2022/05/24 13:09:24;;;;;;;8.48;1.15;;;19.60;99.90;;;;;;5074603;28;20503;-72
2022/05/24 13:11:54;;;;;;;5.85;1.08;;;19.50;99.90;;;;;;5064932;28;20032;-73
2022/05/24 13:14:53;;;;;;;4.40;0.90;;;19.30;99.90;;;;;;5071563;28;20060;-73
2022/05/24 13:17:21;;;;;;;2.63;0.75;;;19.40;99.90;;;;;;5073880;28;20028;-72
2022/05/24 13:19:52;;;;;;;1.23;0.65;;;19.20;99.90;;;;;;5075550;28;20025;-71
2022/05/24 13:22:19;;;;;;;4.13;1.08;;;19.30;99.90;;;;;;5075609;28;20035;-72
2022/05/24 13:25:02;;;;;;;2.50;1.17;;;19.20;99.90;;;;;;5074251;28;20480;-72
2022/05/24 13:27:52;;;;;;;3.35;1.58;;;19.10;99.90;;;;;;5068559;28;20432;-73
2022/05/24 13:35:50;;;;;;;1.33;0.93;;;19.60;99.90;;;;;;5073462;28;20028;-72
2022/05/24 13:38:26;;;;;;;1.40;1.00;;;19.90;99.90;;;;;;5074378;28;20046;-72
2022/05/24 13:40:54;;;;;;;3.67;1.23;;;20.00;99.90;;;;;;5073630;28;20023;-72
2022/05/24 13:43:35;;;;;;;1.77;1.10;;;20.30;99.90;;;;;;5073048;28;20040;-72
2022/05/24 13:46:14;;;;;;;4.05;1.25;;;20.70;99.90;;;;;;5075338;28;20017;-72
2022/05/24 13:48:52;;;;;;;2.20;0.93;;;21.00;99.90;;;;;;5069352;28;20047;-72
2022/05/24 13:51:25;;;;;;;2.25;0.90;;;21.20;99.90;;;;;;5071664;28;20530;-72
2022/05/24 13:53:51;;;;;;;1.95;0.98;;;21.10;99.30;;;;;;5075463;28;20028;-72